Main page
METAR-TAF:

METAR-TAF

Airports :

Cherif Al Idrissi Airport

Al Hoceima, Morocco

latitude: 35-11N, longitude: 003-51W, elevation: 27 m

Current weather observation

The report was made 39 minutes ago, at 10:00 UTC
Wind 6 kt from the North, varying between Northwest and North/Northeast
Temperature 27°C
Humidity 37%
Pressure 1016 hPa
Visibility 10 km or more
no clouds below 1500 m and no cumulonimbus

METAR: GMTA 161000Z 35006KT 320V030 CAVOK 27/11 Q1016 NOSIG

Time: 11:39 (10:39 UTC)

Forecast

The report was made 5 hours and 39 minutes ago, at 05:00 UTC
Forecast valid from 16 at 06 UTC to 17 at 12 UTC
Wind 5 kt from the South/Southwest
Visibility 10 km or more
no clouds below 1500 m and no cumulonimbus

TAF: GMTA 160500Z 1606/1712 20005KT CAVOK

Weather observations and forecasts of more than 4000 airports (METAR and TAF reports).

The available stations are represented by yellow and red dots on the map.

Hover mouse over dot to see the name of the station.

Then click to see weather observations and forecasts.

To change the map : click on the green buttons with a black cross to zoom in, on the green button with a dash to zoom out, or on the green arrows for adjacent maps.


METAR-TAF: